Time;durP1;ratioP1;P1;durP2;ratioP2;P2;SDS_P1;SDS_P2;PMS_P1;PMS_P2;Temp;Humidity;BMP_temperature;BMP_pressure;BME280_temperature;BME280_humidity;BME280_pressure;Samples;Min_cycle;Max_cycle;Signal;HPM_P1;HPM_P2
2023/01/17 00:01:14;;;;;;;0.90;0.50;;;5.20;99.90;;;;;;5032687;28;20212;-54
2023/01/17 00:11:50;;;;;;;1.37;0.97;;;5.30;99.90;;;;;;5032608;28;20685;-54
2023/01/17 00:14:17;;;;;;;0.60;0.40;;;5.40;99.90;;;;;;5032347;28;20213;-54
2023/01/17 00:16:44;;;;;;;0.80;0.77;;;5.30;99.90;;;;;;5032382;28;20264;-54
2023/01/17 01:34:02;;;;;;;1.10;0.70;;;5.70;99.90;;;;;;5035394;28;20209;-54
2023/01/17 01:36:29;;;;;;;0.70;0.67;;;5.80;99.90;;;;;;5035155;28;20234;-54
2023/01/17 01:38:55;;;;;;;1.57;0.90;;;5.80;99.90;;;;;;5034774;28;20713;-54
2023/01/17 01:41:22;;;;;;;1.10;0.80;;;5.70;99.90;;;;;;5035685;28;20206;-54
2023/01/17 01:43:52;;;;;;;1.90;0.97;;;5.70;99.90;;;;;;5035693;28;20284;-54
2023/01/17 01:46:24;;;;;;;1.03;0.80;;;5.80;99.90;;;;;;5035509;28;20233;-54
2023/01/17 01:48:54;;;;;;;2.23;0.90;;;5.80;99.90;;;;;;5035141;28;20234;-54
2023/01/17 01:51:26;;;;;;;1.33;0.90;;;5.80;99.90;;;;;;5035049;28;20237;-54
2023/01/17 01:53:58;;;;;;;1.53;1.00;;;5.70;99.90;;;;;;5034980;28;20608;-54
2023/01/17 01:56:27;;;;;;;1.13;0.90;;;5.70;99.90;;;;;;5034401;28;20683;-54
2023/01/17 01:58:54;;;;;;;2.63;0.90;;;5.80;99.90;;;;;;5034325;28;20626;-54
2023/01/17 02:01:21;;;;;;;2.20;1.00;;;5.80;99.90;;;;;;5034925;28;20210;-54
2023/01/17 02:03:49;;;;;;;1.80;0.80;;;5.70;99.90;;;;;;5034872;28;20675;-54
2023/01/17 02:06:29;;;;;;;1.70;0.90;;;5.80;99.90;;;;;;5034914;28;20238;-54
2023/01/17 02:08:59;;;;;;;1.83;1.10;;;5.70;99.90;;;;;;5034590;28;20236;-54
2023/01/17 02:11:27;;;;;;;1.17;0.90;;;5.80;99.90;;;;;;5034632;28;20577;-54
2023/01/17 02:13:54;;;;;;;1.77;1.10;;;5.80;99.90;;;;;;5034431;28;20213;-55
2023/01/17 02:16:32;;;;;;;0.80;0.60;;;5.80;99.90;;;;;;5034609;28;20206;-54
2023/01/17 02:19:14;;;;;;;2.37;1.10;;;5.80;99.90;;;;;;5034080;28;20233;-54
2023/01/17 02:21:44;;;;;;;1.80;1.00;;;5.90;99.90;;;;;;5034453;28;20701;-55
2023/01/17 02:24:45;;;;;;;1.87;0.97;;;5.90;99.90;;;;;;5034394;28;20210;-54
2023/01/17 02:27:24;;;;;;;2.00;0.77;;;5.90;99.90;;;;;;5034254;28;20226;-54
2023/01/17 02:30:26;;;;;;;1.60;0.90;;;5.90;99.90;;;;;;5034424;28;20774;-54
2023/01/17 02:33:16;;;;;;;1.90;0.90;;;5.80;99.90;;;;;;5033918;28;20296;-54
2023/01/17 02:35:52;;;;;;;2.93;1.10;;;5.90;99.90;;;;;;5034097;28;20224;-54
2023/01/17 02:38:30;;;;;;;3.70;1.13;;;6.00;99.90;;;;;;5033823;28;20252;-55
2023/01/17 02:41:01;;;;;;;1.87;1.00;;;6.00;99.90;;;;;;5033923;28;20210;-55
2023/01/17 02:43:28;;;;;;;1.80;1.00;;;6.00;99.90;;;;;;5034411;28;20207;-55
2023/01/17 02:45:56;;;;;;;1.30;0.83;;;6.00;99.90;;;;;;5033849;28;20714;-55
2023/01/17 02:48:25;;;;;;;2.23;1.00;;;6.10;99.90;;;;;;5033803;28;20237;-55
2023/01/17 02:51:19;;;;;;;2.03;1.10;;;6.10;99.90;;;;;;5033725;28;20213;-55
2023/01/17 02:54:02;;;;;;;2.53;1.10;;;6.10;99.90;;;;;;5033815;28;20209;-55
2023/01/17 02:56:41;;;;;;;1.73;1.03;;;6.10;99.90;;;;;;5034349;28;20209;-55
2023/01/17 02:59:20;;;;;;;1.73;0.90;;;6.20;99.90;;;;;;5033697;28;20225;-55
2023/01/17 03:02:00;;;;;;;4.17;2.10;;;6.20;99.90;;;;;;5033983;28;20210;-54
2023/01/17 03:04:31;;;;;;;1.17;0.70;;;6.20;99.90;;;;;;5033744;28;20210;-55
2023/01/17 03:07:02;;;;;;;1.20;0.90;;;6.20;99.90;;;;;;5032916;28;20238;-54
2023/01/17 03:09:30;;;;;;;2.23;1.20;;;6.10;99.90;;;;;;5033155;28;20234;-54
2023/01/17 03:11:58;;;;;;;2.73;1.10;;;6.10;99.90;;;;;;5033331;28;20210;-54
2023/01/17 03:14:25;;;;;;;1.90;1.00;;;6.10;99.90;;;;;;5033161;28;20210;-58
2023/01/17 03:16:53;;;;;;;2.37;1.10;;;6.10;99.90;;;;;;5033604;28;20213;-54
2023/01/17 03:19:19;;;;;;;1.03;0.70;;;6.10;99.90;;;;;;5032744;28;20343;-54
2023/01/17 03:21:48;;;;;;;1.90;1.10;;;6.10;99.90;;;;;;5033250;28;20218;-54
2023/01/17 03:24:15;;;;;;;1.70;1.03;;;6.10;99.90;;;;;;5033217;28;20206;-54
2023/01/17 03:26:43;;;;;;;1.00;0.80;;;6.10;99.90;;;;;;5032856;28;20703;-54
2023/01/17 03:29:10;;;;;;;1.97;0.73;;;6.00;99.90;;;;;;5032535;28;20261;-55
2023/01/17 03:31:37;;;;;;;2.13;1.00;;;6.00;99.90;;;;;;5033063;28;20214;-54
2023/01/17 03:34:05;;;;;;;1.30;0.90;;;6.00;99.90;;;;;;5033156;28;20214;-54
2023/01/17 03:36:32;;;;;;;2.27;1.10;;;6.00;99.90;;;;;;5032969;28;20203;-55
2023/01/17 03:38:58;;;;;;;1.53;1.20;;;6.00;99.90;;;;;;5032358;28;20226;-55
2023/01/17 03:41:25;;;;;;;2.20;1.33;;;6.10;99.90;;;;;;5032780;28;20567;-54
2023/01/17 03:43:52;;;;;;;1.43;0.90;;;6.00;99.90;;;;;;5032480;28;20217;-54
2023/01/17 03:46:20;;;;;;;1.70;0.93;;;5.90;99.90;;;;;;5033224;28;20230;-55
2023/01/17 03:48:47;;;;;;;2.07;1.00;;;6.00;99.90;;;;;;5032859;28;20296;-54
2023/01/17 03:51:16;;;;;;;1.83;1.20;;;5.90;99.90;;;;;;5032578;28;20214;-54
2023/01/17 03:53:45;;;;;;;2.73;1.20;;;5.90;99.90;;;;;;5033040;28;20214;-54
2023/01/17 03:56:11;;;;;;;2.23;1.40;;;5.80;99.90;;;;;;5032534;28;20217;-55
2023/01/17 03:58:38;;;;;;;1.53;0.80;;;5.80;99.90;;;;;;5032704;28;20227;-54
2023/01/17 04:01:05;;;;;;;1.20;0.90;;;5.80;99.90;;;;;;5032722;28;20224;-54
2023/01/17 04:03:32;;;;;;;2.47;1.20;;;5.70;99.90;;;;;;5032484;28;20217;-54
2023/01/17 04:05:59;;;;;;;1.20;0.87;;;5.80;99.90;;;;;;5032417;28;20230;-54
2023/01/17 04:08:27;;;;;;;2.07;1.00;;;5.80;99.90;;;;;;5031957;28;20574;-54
2023/01/17 04:10:54;;;;;;;2.00;1.13;;;5.80;99.90;;;;;;5032298;28;20210;-54
2023/01/17 04:13:20;;;;;;;1.10;0.80;;;5.80;99.90;;;;;;5032560;28;20210;-54
2023/01/17 04:15:49;;;;;;;1.20;0.87;;;5.80;99.90;;;;;;5032346;28;20576;-54
2023/01/17 04:18:17;;;;;;;0.73;0.60;;;5.80;99.90;;;;;;5032337;28;20232;-55
2023/01/17 04:20:44;;;;;;;1.53;0.93;;;5.80;99.90;;;;;;5032575;28;20213;-55
2023/01/17 04:23:11;;;;;;;1.07;0.90;;;5.80;99.90;;;;;;5031952;28;20202;-56
2023/01/17 04:25:39;;;;;;;1.00;0.90;;;5.60;99.90;;;;;;5032398;28;20217;-55
2023/01/17 04:28:05;;;;;;;1.43;0.90;;;5.50;99.90;;;;;;5032464;28;20649;-55
2023/01/17 04:30:33;;;;;;;3.70;0.80;;;5.40;99.90;;;;;;5032823;28;20221;-55
2023/01/17 04:32:59;;;;;;;0.30;0.30;;;5.30;99.90;;;;;;5032767;28;20205;-55
2023/01/17 04:35:26;;;;;;;0.50;0.50;;;5.30;99.90;;;;;;5032399;28;20569;-54
2023/01/17 04:37:53;;;;;;;1.80;0.70;;;5.10;99.90;;;;;;5031750;28;20223;-55
2023/01/17 04:40:20;;;;;;;2.13;0.60;;;5.10;99.90;;;;;;5032470;28;20214;-54
2023/01/17 04:42:48;;;;;;;1.90;0.90;;;5.00;99.90;;;;;;5032049;28;20217;-54
2023/01/17 04:45:15;;;;;;;1.37;0.70;;;5.00;99.90;;;;;;5032390;28;20280;-55
2023/01/17 04:47:42;;;;;;;0.90;0.60;;;4.90;99.90;;;;;;5031835;28;20296;-54
2023/01/17 04:50:10;;;;;;;0.93;0.60;;;4.80;99.90;;;;;;5032397;28;20283;-55
2023/01/17 04:52:38;;;;;;;1.07;0.67;;;4.80;99.90;;;;;;5032507;28;20206;-54
2023/01/17 04:55:05;;;;;;;0.80;0.63;;;4.70;99.90;;;;;;5032553;28;20221;-54
2023/01/17 04:57:32;;;;;;;0.93;0.73;;;4.60;99.90;;;;;;5031905;28;20214;-54
2023/01/17 05:00:00;;;;;;;0.83;0.60;;;4.50;99.90;;;;;;5031855;28;20206;-54
2023/01/17 05:02:27;;;;;;;0.70;0.50;;;4.40;99.90;;;;;;5031810;28;20213;-54
2023/01/17 05:04:53;;;;;;;0.60;0.60;;;4.30;99.90;;;;;;5031746;28;20221;-54
2023/01/17 05:07:20;;;;;;;1.50;1.00;;;4.10;99.90;;;;;;5031921;28;20230;-54
2023/01/17 05:09:47;;;;;;;1.67;0.90;;;4.00;99.90;;;;;;5031773;28;20234;-54
2023/01/17 05:12:13;;;;;;;2.40;0.93;;;4.00;99.90;;;;;;5032227;28;20222;-55
2023/01/17 05:14:40;;;;;;;2.13;1.33;;;4.00;99.90;;;;;;5032009;28;20202;-54
2023/01/17 05:17:09;;;;;;;2.43;0.60;;;4.10;99.90;;;;;;5031981;28;20211;-54
2023/01/17 05:19:36;;;;;;;0.90;0.70;;;4.20;99.90;;;;;;5031406;28;20229;-54
2023/01/17 05:22:13;;;;;;;1.60;0.97;;;4.30;99.90;;;;;;5031864;28;20206;-55
2023/01/17 05:24:40;;;;;;;2.87;0.83;;;4.40;99.90;;;;;;5032075;28;20210;-55
2023/01/17 05:27:07;;;;;;;1.43;1.00;;;4.40;99.90;;;;;;5031833;28;20223;-55
2023/01/17 05:29:34;;;;;;;3.27;1.47;;;4.50;99.90;;;;;;5031629;28;20746;-54
2023/01/17 05:32:01;;;;;;;4.27;1.73;;;4.40;99.90;;;;;;5034377;28;20233;-54
2023/01/17 05:34:29;;;;;;;2.80;1.57;;;4.40;99.90;;;;;;5035599;28;20221;-54
2023/01/17 05:36:55;;;;;;;3.07;1.70;;;4.40;99.90;;;;;;5035528;28;20256;-55
2023/01/17 05:39:22;;;;;;;4.00;2.23;;;4.30;99.90;;;;;;5035125;28;20702;-54
2023/01/17 05:41:49;;;;;;;2.67;2.00;;;4.20;99.90;;;;;;5035027;28;20682;-54
2023/01/17 05:44:16;;;;;;;3.40;2.50;;;4.10;99.90;;;;;;5034980;28;20217;-54
2023/01/17 05:46:43;;;;;;;4.57;2.00;;;4.00;99.90;;;;;;5035152;28;20300;-54
2023/01/17 05:49:10;;;;;;;1.77;1.23;;;3.90;99.90;;;;;;5034952;28;20238;-54
2023/01/17 05:51:38;;;;;;;2.93;2.27;;;3.80;99.90;;;;;;5035242;28;20246;-54
2023/01/17 05:54:05;;;;;;;3.40;1.40;;;3.70;99.90;;;;;;5035515;28;20305;-54
2023/01/17 05:56:32;;;;;;;3.87;1.90;;;3.60;99.90;;;;;;5034781;28;20663;-55
2023/01/17 05:59:00;;;;;;;1.70;1.20;;;3.50;99.90;;;;;;5034552;28;20284;-54
2023/01/17 06:01:26;;;;;;;2.43;1.53;;;3.50;99.90;;;;;;5035201;28;20663;-54
2023/01/17 06:03:53;;;;;;;3.93;1.60;;;3.40;99.90;;;;;;5035150;28;20206;-54
2023/01/17 06:06:20;;;;;;;2.53;1.40;;;3.30;99.90;;;;;;5034828;28;20295;-54
2023/01/17 06:08:48;;;;;;;2.80;1.40;;;3.30;99.90;;;;;;5035283;28;20230;-55
2023/01/17 06:11:17;;;;;;;1.93;1.60;;;3.20;99.90;;;;;;5035012;28;20584;-54
2023/01/17 06:13:44;;;;;;;2.53;1.80;;;3.20;99.90;;;;;;5034901;28;20218;-54
2023/01/17 06:16:10;;;;;;;4.50;1.77;;;3.20;99.90;;;;;;5034779;28;20210;-54
2023/01/17 06:18:37;;;;;;;2.37;1.60;;;3.10;99.90;;;;;;5035026;28;20253;-54
2023/01/17 06:21:04;;;;;;;1.50;1.13;;;3.10;99.90;;;;;;5034933;28;20206;-54
2023/01/17 06:23:31;;;;;;;1.90;1.40;;;3.00;99.90;;;;;;5035323;28;20297;-54
2023/01/17 06:26:02;;;;;;;2.73;1.13;;;3.00;99.90;;;;;;5034642;28;20214;-54
2023/01/17 06:28:29;;;;;;;1.93;1.20;;;3.00;99.90;;;;;;5034304;28;20313;-54
2023/01/17 06:30:56;;;;;;;5.43;1.53;;;3.00;99.90;;;;;;5034654;28;20214;-54
2023/01/17 06:33:23;;;;;;;4.37;2.80;;;3.00;99.90;;;;;;5034747;28;20202;-54
2023/01/17 06:35:50;;;;;;;3.03;1.33;;;2.90;99.90;;;;;;5034220;28;20210;-54
2023/01/17 06:38:18;;;;;;;4.03;1.93;;;2.90;99.90;;;;;;5033938;28;20316;-55
2023/01/17 06:40:44;;;;;;;2.40;1.80;;;2.80;99.90;;;;;;5034187;28;20210;-54
2023/01/17 06:43:13;;;;;;;3.60;1.50;;;2.80;99.90;;;;;;5033350;28;20307;-54
2023/01/17 06:45:39;;;;;;;4.10;1.43;;;2.80;99.90;;;;;;5034421;28;20211;-54
2023/01/17 06:48:06;;;;;;;2.17;1.17;;;2.80;99.90;;;;;;5034119;28;20754;-54
2023/01/17 06:50:34;;;;;;;4.40;1.63;;;2.70;99.90;;;;;;5034518;28;20212;-55
2023/01/17 06:53:03;;;;;;;2.57;1.60;;;2.60;99.90;;;;;;5034812;28;20221;-54
2023/01/17 06:55:32;;;;;;;3.43;2.30;;;2.60;99.90;;;;;;5034707;28;20206;-54
2023/01/17 06:58:01;;;;;;;3.23;1.67;;;2.60;99.90;;;;;;5034533;28;20233;-54
2023/01/17 07:00:30;;;;;;;2.10;1.50;;;2.50;99.90;;;;;;5034561;28;20210;-54
2023/01/17 07:02:57;;;;;;;2.53;1.17;;;2.50;99.90;;;;;;5034024;28;20261;-54
2023/01/17 07:05:23;;;;;;;1.83;1.13;;;2.40;99.90;;;;;;5034258;28;20217;-54
2023/01/17 07:07:50;;;;;;;2.87;1.60;;;2.40;99.90;;;;;;5033856;28;20517;-54
2023/01/17 07:10:17;;;;;;;3.27;1.50;;;2.40;99.90;;;;;;5033812;28;20214;-54
2023/01/17 07:12:44;;;;;;;2.03;1.10;;;2.30;99.90;;;;;;5033530;28;20194;-54
2023/01/17 07:15:11;;;;;;;3.13;1.43;;;2.30;99.90;;;;;;5033540;28;20214;-54
2023/01/17 07:17:40;;;;;;;3.63;1.70;;;2.30;99.90;;;;;;5033410;28;20202;-54
2023/01/17 07:20:07;;;;;;;4.10;1.30;;;2.20;99.90;;;;;;5033203;28;20301;-54
2023/01/17 07:22:36;;;;;;;1.80;1.27;;;1.90;99.90;;;;;;5033390;28;20221;-54
2023/01/17 07:25:03;;;;;;;8.90;3.90;;;1.70;99.90;;;;;;5033414;28;20202;-54
2023/01/17 07:27:32;;;;;;;7.07;4.00;;;1.50;99.90;;;;;;5033484;28;20229;-54
2023/01/17 07:29:59;;;;;;;9.77;4.07;;;1.40;99.90;;;;;;5032652;28;20304;-52
2023/01/17 07:32:25;;;;;;;6.87;3.90;;;1.30;99.90;;;;;;5033334;28;20216;-53
2023/01/17 07:34:56;;;;;;;6.47;3.53;;;1.40;99.90;;;;;;5032820;28;20217;-53
2023/01/17 07:37:24;;;;;;;6.53;3.40;;;1.50;99.90;;;;;;5033117;28;20301;-52
2023/01/17 07:39:51;;;;;;;7.00;3.73;;;1.60;99.90;;;;;;5032673;28;20217;-52
2023/01/17 07:42:18;;;;;;;6.60;3.80;;;1.70;99.90;;;;;;5033315;28;20253;-53
2023/01/17 07:44:45;;;;;;;5.80;3.20;;;1.80;99.90;;;;;;5033033;28;20237;-53
2023/01/17 07:47:12;;;;;;;5.77;3.10;;;1.70;99.90;;;;;;5032813;28;20258;-52
2023/01/17 07:49:38;;;;;;;3.83;2.67;;;1.60;99.90;;;;;;5033277;28;20230;-52
2023/01/17 07:52:07;;;;;;;5.73;3.43;;;1.60;99.90;;;;;;5033328;28;20214;-51
2023/01/17 07:54:35;;;;;;;6.30;2.77;;;1.60;99.90;;;;;;5032630;28;20213;-54
2023/01/17 07:57:02;;;;;;;5.10;2.40;;;1.60;99.90;;;;;;5032835;28;20252;-52
2023/01/17 07:59:29;;;;;;;5.07;3.37;;;1.50;99.90;;;;;;5032496;28;20321;-52
2023/01/17 08:01:56;;;;;;;4.63;3.10;;;1.40;99.90;;;;;;5032603;28;20202;-53
2023/01/17 08:04:25;;;;;;;4.83;3.00;;;1.40;99.90;;;;;;5032710;28;20202;-52
2023/01/17 08:06:53;;;;;;;5.90;3.23;;;1.50;99.90;;;;;;5033029;28;20229;-53
2023/01/17 08:09:22;;;;;;;5.10;2.80;;;1.70;99.90;;;;;;5032519;28;20233;-52
2023/01/17 08:11:48;;;;;;;5.20;3.20;;;1.80;99.90;;;;;;5032819;28;20206;-52
2023/01/17 08:14:15;;;;;;;5.37;2.90;;;1.90;99.90;;;;;;5032478;28;20297;-52
2023/01/17 08:16:42;;;;;;;4.60;2.77;;;1.90;99.90;;;;;;5032559;28;20236;-53
2023/01/17 08:19:10;;;;;;;3.47;2.30;;;1.80;99.90;;;;;;5032196;28;20229;-52
2023/01/17 08:21:37;;;;;;;4.10;2.17;;;1.70;99.90;;;;;;5032412;28;20206;-53
2023/01/17 08:24:04;;;;;;;3.60;2.10;;;1.70;99.90;;;;;;5032781;28;20206;-52
2023/01/17 08:26:32;;;;;;;2.47;1.60;;;1.70;99.90;;;;;;5032281;28;20221;-52
2023/01/17 08:29:00;;;;;;;3.60;2.10;;;1.80;99.90;;;;;;5031891;28;20231;-52
2023/01/17 08:31:27;;;;;;;3.87;2.00;;;2.00;99.90;;;;;;5032378;28;20210;-52
2023/01/17 08:33:54;;;;;;;3.30;2.30;;;2.30;99.90;;;;;;5032446;28;20206;-52
2023/01/17 08:36:21;;;;;;;4.37;2.17;;;2.40;99.90;;;;;;5032525;28;20211;-52
2023/01/17 08:38:51;;;;;;;2.57;1.60;;;2.60;99.90;;;;;;5032172;28;20230;-53
2023/01/17 08:41:18;;;;;;;2.40;1.90;;;2.80;99.90;;;;;;5032501;28;20210;-52
2023/01/17 08:43:47;;;;;;;3.53;2.07;;;2.90;99.90;;;;;;5031950;28;20206;-52
2023/01/17 08:46:13;;;;;;;3.57;2.00;;;3.10;99.90;;;;;;5032352;28;20289;-52
2023/01/17 08:48:40;;;;;;;4.37;2.03;;;3.40;99.90;;;;;;5032018;28;20233;-55
2023/01/17 08:51:07;;;;;;;3.53;2.10;;;3.60;99.90;;;;;;5031978;28;20210;-55
2023/01/17 08:53:34;;;;;;;4.03;2.00;;;3.70;99.90;;;;;;5032254;28;20218;-56
2023/01/17 08:56:03;;;;;;;5.33;2.30;;;3.70;99.90;;;;;;5032816;28;20202;-55
2023/01/17 08:58:31;;;;;;;6.47;2.50;;;3.80;99.90;;;;;;5032436;28;20230;-55
2023/01/17 09:01:02;;;;;;;3.10;2.20;;;3.90;99.90;;;;;;5032300;28;20220;-55
2023/01/17 09:03:28;;;;;;;3.47;2.20;;;3.90;99.90;;;;;;5031993;28;20206;-55
2023/01/17 09:06:01;;;;;;;2.83;1.87;;;3.90;99.90;;;;;;5034064;28;20236;-55
2023/01/17 09:08:28;;;;;;;5.00;2.47;;;4.00;99.90;;;;;;5036248;28;20257;-55
2023/01/17 09:10:54;;;;;;;4.30;2.57;;;4.10;99.90;;;;;;5036148;28;20210;-55
2023/01/17 09:13:21;;;;;;;3.07;2.10;;;4.10;99.90;;;;;;5036308;28;20210;-56
2023/01/17 09:15:48;;;;;;;3.77;2.30;;;4.10;99.90;;;;;;5036075;28;20206;-56
2023/01/17 09:18:16;;;;;;;3.67;2.00;;;4.20;99.90;;;;;;5036096;28;20731;-56
2023/01/17 09:20:43;;;;;;;3.13;1.90;;;4.30;99.90;;;;;;5036109;28;20203;-55
2023/01/17 09:23:09;;;;;;;2.20;1.90;;;4.40;99.90;;;;;;5035770;28;20213;-55
2023/01/17 09:25:38;;;;;;;3.33;2.10;;;4.50;99.90;;;;;;5036254;28;20210;-56
2023/01/17 09:28:05;;;;;;;2.47;1.53;;;4.60;99.90;;;;;;5036224;28;20237;-55
2023/01/17 09:30:32;;;;;;;2.77;1.40;;;4.60;99.90;;;;;;5037963;28;20413;-60
2023/01/17 09:32:59;;;;;;;3.20;1.83;;;4.60;99.90;;;;;;5036089;28;20749;-56
2023/01/17 09:35:27;;;;;;;2.90;1.47;;;4.50;99.90;;;;;;5035997;28;20576;-56
2023/01/17 09:37:53;;;;;;;2.33;1.50;;;4.30;99.90;;;;;;5035648;28;20222;-56
2023/01/17 09:40:24;;;;;;;2.43;1.40;;;4.30;99.90;;;;;;5035640;28;20214;-56
2023/01/17 09:42:56;;;;;;;2.53;1.70;;;4.10;99.90;;;;;;5035486;28;20300;-56
2023/01/17 09:45:27;;;;;;;2.47;1.63;;;4.00;99.90;;;;;;5035222;28;20634;-56
2023/01/17 09:47:55;;;;;;;3.03;1.80;;;4.10;99.90;;;;;;5034982;28;20234;-56
2023/01/17 09:50:30;;;;;;;2.13;1.60;;;4.20;99.90;;;;;;5035193;28;20698;-56
2023/01/17 09:53:00;;;;;;;3.57;1.37;;;4.10;99.90;;;;;;5035412;28;20244;-56
2023/01/17 09:55:31;;;;;;;3.47;1.50;;;4.00;99.90;;;;;;5035347;28;20245;-56
2023/01/17 09:58:02;;;;;;;1.27;1.10;;;4.00;99.90;;;;;;5035245;28;20226;-55
2023/01/17 10:00:40;;;;;;;2.70;1.50;;;4.10;99.90;;;;;;5035149;28;20191;-56
2023/01/17 10:03:27;;;;;;;3.10;1.60;;;4.30;99.90;;;;;;5035327;28;20198;-55
2023/01/17 10:06:09;;;;;;;3.70;1.33;;;4.40;99.90;;;;;;5035191;28;20213;-55
2023/01/17 10:09:09;;;;;;;2.83;1.50;;;4.50;99.90;;;;;;5034608;28;20225;-56
2023/01/17 10:11:52;;;;;;;2.67;1.53;;;4.50;99.90;;;;;;5034554;28;20238;-56
2023/01/17 10:14:45;;;;;;;2.73;1.60;;;4.60;99.90;;;;;;5034642;28;20214;-56
2023/01/17 10:17:19;;;;;;;2.40;1.80;;;4.70;99.90;;;;;;5034194;28;20674;-56
2023/01/17 10:20:03;;;;;;;2.77;1.40;;;4.80;99.90;;;;;;5034589;28;20230;-56
2023/01/17 10:22:53;;;;;;;3.13;1.43;;;4.90;99.90;;;;;;5034353;28;20190;-56
2023/01/17 10:25:33;;;;;;;2.10;1.57;;;4.80;99.90;;;;;;5034394;28;20207;-57
2023/01/17 10:28:05;;;;;;;3.13;1.23;;;4.80;99.90;;;;;;5034215;28;20233;-56
2023/01/17 10:30:36;;;;;;;2.73;1.40;;;4.90;99.90;;;;;;5034439;28;20206;-56
2023/01/17 10:33:11;;;;;;;3.10;1.60;;;5.00;99.90;;;;;;5034869;28;20210;-55
2023/01/17 10:35:48;;;;;;;3.23;1.70;;;5.20;99.90;;;;;;5034885;28;20209;-56
2023/01/17 10:38:18;;;;;;;2.67;1.50;;;5.40;99.90;;;;;;5034514;28;20232;-56
2023/01/17 10:40:49;;;;;;;3.80;1.67;;;5.60;99.90;;;;;;5034651;28;20243;-57
2023/01/17 10:43:21;;;;;;;2.97;1.90;;;5.80;99.90;;;;;;5034630;28;20202;-57
2023/01/17 10:45:51;;;;;;;4.87;2.33;;;5.80;99.90;;;;;;5034774;28;20679;-56
2023/01/17 10:48:29;;;;;;;2.87;1.70;;;5.80;99.90;;;;;;5034123;28;20230;-56
2023/01/17 10:51:02;;;;;;;1.97;1.40;;;5.80;99.90;;;;;;5034415;28;20301;-54
2023/01/17 10:53:46;;;;;;;2.07;1.20;;;5.90;99.90;;;;;;5034221;28;20229;-60
2023/01/17 10:56:15;;;;;;;2.20;1.37;;;5.90;99.90;;;;;;5034047;28;20217;-58
2023/01/17 10:58:42;;;;;;;2.97;1.40;;;6.00;99.90;;;;;;5033497;28;20706;-58
2023/01/17 11:01:17;;;;;;;2.53;1.50;;;6.00;99.90;;;;;;5034038;28;20233;-59
2023/01/17 11:03:49;;;;;;;1.50;1.10;;;6.00;99.90;;;;;;5033897;28;20256;-58
2023/01/17 11:06:18;;;;;;;2.37;1.13;;;6.20;99.90;;;;;;5034342;28;20206;-59
2023/01/17 11:08:55;;;;;;;2.43;1.40;;;6.40;99.90;;;;;;5033406;28;20253;-59
2023/01/17 11:11:24;;;;;;;1.37;0.70;;;6.50;99.90;;;;;;5033773;28;20267;-59
2023/01/17 11:13:53;;;;;;;1.93;0.90;;;6.60;99.90;;;;;;5033539;28;20212;-59
2023/01/17 11:16:23;;;;;;;3.57;1.30;;;6.80;99.90;;;;;;5033696;28;20256;-58
2023/01/17 11:19:08;;;;;;;2.50;1.47;;;6.90;99.90;;;;;;5033425;28;20703;-58
2023/01/17 11:21:37;;;;;;;2.37;0.90;;;7.10;99.90;;;;;;5033235;28;20230;-58
2023/01/17 11:24:17;;;;;;;1.67;0.90;;;7.10;99.90;;;;;;5033509;28;20647;-58
2023/01/17 11:26:48;;;;;;;1.83;1.00;;;7.20;99.90;;;;;;5034033;28;20229;-59
2023/01/17 11:29:25;;;;;;;2.40;1.10;;;7.20;99.90;;;;;;5032722;28;20234;-58
2023/01/17 11:31:52;;;;;;;37.63;30.17;;;7.30;99.90;;;;;;5033343;28;20211;-60
2023/01/17 11:34:24;;;;;;;2.50;1.13;;;7.60;99.90;;;;;;5033214;28;20210;-59
2023/01/17 11:37:08;;;;;;;2.67;0.93;;;7.70;99.90;;;;;;5033428;28;20213;-60
2023/01/17 11:39:36;;;;;;;1.13;0.67;;;7.70;99.90;;;;;;5033608;28;20233;-59
2023/01/17 11:42:06;;;;;;;2.00;0.83;;;7.70;99.90;;;;;;5033217;28;20288;-59
2023/01/17 11:44:35;;;;;;;2.53;0.97;;;7.70;99.90;;;;;;5032913;28;20216;-58
2023/01/17 11:47:14;;;;;;;1.33;0.70;;;7.80;99.90;;;;;;5032935;28;20720;-58
2023/01/17 11:49:42;;;;;;;1.77;0.83;;;7.90;99.90;;;;;;5032659;28;20230;-56
2023/01/17 11:52:10;;;;;;;1.40;0.80;;;7.80;99.90;;;;;;5033380;28;20297;-55
2023/01/17 11:54:41;;;;;;;1.77;0.93;;;7.70;99.90;;;;;;5032986;28;20241;-55
2023/01/17 11:57:20;;;;;;;0.90;0.30;;;7.70;99.90;;;;;;5031910;28;20449;-57
2023/01/17 11:59:47;;;;;;;2.20;0.57;;;7.80;99.90;;;;;;5010541;28;20232;-60
2023/01/17 12:02:33;;;;;;;2.60;0.80;;;8.10;99.90;;;;;;5019875;28;20632;-57
2023/01/17 12:05:17;;;;;;;3.37;0.90;;;8.40;99.90;;;;;;5031851;28;20375;-58
2023/01/17 12:07:50;;;;;;;2.00;0.80;;;8.70;99.90;;;;;;5032039;28;20972;-58
2023/01/17 12:10:25;;;;;;;2.10;0.80;;;8.90;99.90;;;;;;5031694;28;20291;-59
2023/01/17 12:15:55;;;;;;;2.10;0.70;;;9.00;99.90;;;;;;5031651;28;20217;-58
2023/01/17 12:18:35;;;;;;;1.77;1.07;;;8.70;99.90;;;;;;5031914;28;20225;-58
2023/01/17 12:21:16;;;;;;;1.47;0.77;;;8.50;99.90;;;;;;5032367;28;20217;-59
2023/01/17 12:24:02;;;;;;;3.33;1.23;;;8.30;99.90;;;;;;5031601;28;20206;-59
2023/01/17 12:26:37;;;;;;;1.17;0.73;;;7.90;99.90;;;;;;5031603;28;20670;-58
2023/01/17 12:29:42;;;;;;;2.73;0.97;;;7.50;99.90;;;;;;5031988;28;20316;-57
2023/01/17 12:32:30;;;;;;;2.73;1.00;;;7.30;99.90;;;;;;5031874;28;20256;-58
2023/01/17 12:35:00;;;;;;;1.53;0.80;;;7.10;99.90;;;;;;5031618;28;20212;-57
2023/01/17 12:37:33;;;;;;;1.63;0.80;;;7.10;99.90;;;;;;5031931;28;20745;-58
2023/01/17 12:40:07;;;;;;;2.10;1.00;;;7.20;99.90;;;;;;5032308;28;20206;-60
2023/01/17 12:42:42;;;;;;;1.50;0.90;;;7.20;99.90;;;;;;5036052;28;20210;-58
2023/01/17 12:45:14;;;;;;;1.50;0.83;;;7.20;99.90;;;;;;5035521;28;20644;-56
2023/01/17 12:47:45;;;;;;;1.20;0.83;;;7.30;99.90;;;;;;5035262;28;20217;-56
2023/01/17 12:50:23;;;;;;;2.20;1.03;;;7.50;99.90;;;;;;5035933;28;20257;-57
2023/01/17 12:52:58;;;;;;;0.93;0.60;;;7.60;99.90;;;;;;5035629;28;20293;-56
2023/01/17 12:55:35;;;;;;;1.60;0.80;;;7.60;99.90;;;;;;5035472;28;20212;-58
2023/01/17 12:58:11;;;;;;;2.53;0.87;;;7.50;99.90;;;;;;5035816;28;20221;-59
2023/01/17 13:00:39;;;;;;;4.53;1.07;;;7.40;99.90;;;;;;5035265;28;20236;-60
2023/01/17 13:03:16;;;;;;;1.03;0.70;;;7.40;99.90;;;;;;5036189;28;20292;-58
2023/01/17 13:05:47;;;;;;;1.90;1.00;;;7.30;99.90;;;;;;5036323;28;20223;-59
2023/01/17 13:08:23;;;;;;;1.83;0.90;;;7.30;99.90;;;;;;5036406;28;20272;-61
2023/01/17 13:10:54;;;;;;;3.37;1.00;;;7.30;99.90;;;;;;5036925;28;20210;-61
2023/01/17 13:13:24;;;;;;;1.87;0.83;;;7.30;99.90;;;;;;5037043;28;20229;-60
2023/01/17 13:15:54;;;;;;;2.13;1.00;;;7.20;99.90;;;;;;5034656;28;20218;-60
2023/01/17 13:18:25;;;;;;;1.50;1.00;;;7.20;99.90;;;;;;5031670;28;20234;-58
2023/01/17 13:21:17;;;;;;;1.60;1.00;;;7.20;99.90;;;;;;5034563;28;20701;-58
2023/01/17 13:24:18;;;;;;;2.07;0.90;;;7.00;99.90;;;;;;5034826;28;20202;-58
2023/01/17 13:27:11;;;;;;;2.07;0.70;;;7.00;99.90;;;;;;5034636;28;20202;-60
2023/01/17 13:29:51;;;;;;;1.60;1.00;;;6.90;99.40;;;;;;5024305;28;20628;-55
2023/01/17 13:32:34;;;;;;;2.93;1.03;;;6.90;99.20;;;;;;5034099;28;20206;-55
2023/01/17 13:35:16;;;;;;;3.47;1.10;;;6.90;99.40;;;;;;5034550;28;20210;-58
2023/01/17 13:38:01;;;;;;;1.23;0.80;;;6.90;99.60;;;;;;5034573;28;20647;-62
2023/01/17 13:40:34;;;;;;;2.83;1.50;;;6.80;99.30;;;;;;5034606;28;20592;-56
2023/01/17 13:43:02;;;;;;;2.93;1.00;;;6.80;99.90;;;;;;5034455;28;20495;-55
2023/01/17 13:45:32;;;;;;;2.67;1.50;;;6.80;99.90;;;;;;5035010;28;20206;-62
2023/01/17 13:48:28;;;;;;;2.43;1.53;;;6.80;99.70;;;;;;5035243;28;20284;-61
2023/01/17 13:50:56;;;;;;;2.03;0.90;;;6.80;99.70;;;;;;5034318;28;20210;-61
2023/01/17 13:53:59;;;;;;;1.70;1.00;;;6.60;99.60;;;;;;5034482;28;20615;-62
2023/01/17 13:56:36;;;;;;;3.17;1.37;;;6.60;99.60;;;;;;5034347;28;20198;-60
2023/01/17 13:59:27;;;;;;;4.07;1.70;;;6.50;99.80;;;;;;5034081;28;20279;-58
2023/01/17 14:01:56;;;;;;;4.33;1.67;;;6.60;99.90;;;;;;5034842;28;20260;-62
2023/01/17 14:04:25;;;;;;;3.73;1.37;;;6.70;99.90;;;;;;5034847;28;20242;-61
2023/01/17 14:07:02;;;;;;;4.87;2.10;;;6.60;99.90;;;;;;5033740;28;20577;-56
2023/01/17 14:09:38;;;;;;;3.83;1.90;;;6.60;99.90;;;;;;5033679;28;20233;-56
2023/01/17 14:12:24;;;;;;;5.70;2.73;;;6.70;99.90;;;;;;5033914;28;20620;-56
2023/01/17 14:14:54;;;;;;;4.50;1.93;;;6.90;99.90;;;;;;5034160;28;20206;-58
2023/01/17 14:18:01;;;;;;;7.30;2.80;;;7.10;99.90;;;;;;5033918;28;20207;-58
2023/01/17 14:20:49;;;;;;;8.00;2.40;;;7.10;99.50;;;;;;5033575;28;20245;-56
2023/01/17 14:24:02;;;;;;;7.63;2.80;;;7.10;99.40;;;;;;5033113;28;20734;-56
2023/01/17 14:26:47;;;;;;;4.30;2.10;;;7.10;99.50;;;;;;5028018;28;20301;-56
2023/01/17 14:29:44;;;;;;;5.33;1.73;;;7.20;98.90;;;;;;5033175;28;20320;-57
2023/01/17 14:32:13;;;;;;;6.00;2.60;;;7.10;98.80;;;;;;5033164;28;20728;-57
2023/01/17 14:34:43;;;;;;;5.30;2.30;;;6.90;98.90;;;;;;5033391;28;20290;-56
2023/01/17 14:37:19;;;;;;;6.87;2.30;;;6.90;98.90;;;;;;5033492;28;20206;-57
2023/01/17 14:39:48;;;;;;;4.77;2.20;;;6.80;99.00;;;;;;5032913;28;20245;-57
2023/01/17 14:42:17;;;;;;;4.23;1.70;;;6.80;99.00;;;;;;5033318;28;20214;-57
2023/01/17 14:44:50;;;;;;;5.23;2.30;;;6.80;99.20;;;;;;5033038;28;20216;-57
2023/01/17 14:47:17;;;;;;;7.27;2.13;;;6.80;99.30;;;;;;5032889;28;20674;-57